Terminal Aerodrome Forecast
Issued by NWS

Home | Current Version | Previous Version | Text Only | Print | Product List | Glossary On
Versions: 1 2 3 4 5 6 7 8 9 10 11 12
000
FTUS45 KABQ 310539
TAFLVS
TAF
KLVS 310539Z 3106/0106 18009KT P6SM FEW150
     FM310900 VRB06KT P6SM FEW150
     FM311900 22010G17KT P6SM SCT090 SCT150
     FM312200 23009KT P6SM VCSH SCT090 BKN120=

USA.gov is the U.S. government's official web portal to all federal, state and local government web resources and services.